Time;durP1;ratioP1;P1;durP2;ratioP2;P2;SDS_P1;SDS_P2;PMS_P1;PMS_P2;Temp;Humidity;BMP_temperature;BMP_pressure;BME280_temperature;BME280_humidity;BME280_pressure;Samples;Min_cycle;Max_cycle;Signal;HPM_P1;HPM_P2
2022/06/05 00:01:34;;;;;;;13.03;12.20;;;18.80;99.90;;;;;;5068781;28;21006;-68
2022/06/05 00:04:09;;;;;;;12.90;12.20;;;18.80;99.90;;;;;;5074405;28;20483;-68
2022/06/05 00:06:44;;;;;;;14.23;13.33;;;18.80;99.90;;;;;;5072082;28;20466;-67
2022/06/05 00:09:21;;;;;;;14.37;13.47;;;18.70;99.90;;;;;;5071363;28;20538;-68
2022/06/05 00:11:54;;;;;;;13.17;12.37;;;18.70;99.90;;;;;;5072601;28;20467;-68
2022/06/05 00:14:21;;;;;;;15.20;14.20;;;18.70;99.90;;;;;;5060429;28;20462;-69
2022/06/05 00:16:48;;;;;;;13.37;12.57;;;18.50;99.90;;;;;;5079889;28;20996;-67
2022/06/05 00:19:15;;;;;;;14.07;13.07;;;18.50;99.90;;;;;;5062806;28;20459;-69
2022/06/05 00:21:42;;;;;;;14.60;13.63;;;18.40;99.90;;;;;;5075882;28;20497;-69
2022/06/05 00:24:09;;;;;;;14.43;13.43;;;18.40;99.90;;;;;;5065067;28;20484;-67
2022/06/05 00:26:45;;;;;;;13.90;13.00;;;18.40;99.90;;;;;;5073663;28;20470;-67
2022/06/05 00:29:25;;;;;;;14.13;13.33;;;18.40;99.90;;;;;;5073939;28;20537;-66
2022/06/05 00:31:58;;;;;;;13.33;12.33;;;18.40;99.90;;;;;;5067208;28;21019;-67
2022/06/05 00:34:26;;;;;;;14.30;13.40;;;18.30;99.90;;;;;;5076165;28;20822;-66
2022/06/05 00:37:14;;;;;;;13.97;13.07;;;18.20;99.90;;;;;;5065974;28;20477;-67
2022/06/05 00:39:53;;;;;;;14.50;13.50;;;18.30;99.90;;;;;;5072384;28;20455;-67
2022/06/05 00:42:25;;;;;;;13.97;13.07;;;18.20;99.90;;;;;;5067370;28;20466;-67
2022/06/05 00:44:55;;;;;;;15.03;13.83;;;18.20;99.90;;;;;;5071324;28;20795;-67
2022/06/05 00:47:25;;;;;;;15.10;14.00;;;18.20;99.90;;;;;;5058430;28;20466;-67
2022/06/05 00:49:55;;;;;;;15.70;14.70;;;18.20;99.90;;;;;;5074483;28;20462;-68
2022/06/05 00:52:25;;;;;;;15.60;14.30;;;18.10;99.90;;;;;;5074798;28;20459;-67
2022/06/05 00:54:51;;;;;;;14.80;13.90;;;18.10;99.90;;;;;;5066725;28;20458;-66
2022/06/05 00:57:19;;;;;;;15.50;14.50;;;18.00;99.90;;;;;;5078041;28;20506;-66
2022/06/05 00:59:49;;;;;;;13.90;13.07;;;18.00;99.90;;;;;;5075997;28;20467;-67
2022/06/05 01:02:16;;;;;;;14.57;13.57;;;18.00;99.90;;;;;;5068243;28;20459;-66
2022/06/05 01:04:47;;;;;;;15.27;14.27;;;18.00;99.90;;;;;;5069655;28;20501;-67
2022/06/05 01:07:14;;;;;;;15.30;13.97;;;18.00;99.90;;;;;;5067821;28;20488;-67
2022/06/05 01:09:42;;;;;;;15.13;13.83;;;18.00;99.90;;;;;;5076462;28;20463;-67
2022/06/05 01:12:19;;;;;;;15.10;13.90;;;18.00;99.90;;;;;;5072766;28;20509;-67
2022/06/05 01:14:59;;;;;;;14.87;13.63;;;18.00;99.90;;;;;;5076553;28;20960;-67
2022/06/05 01:17:34;;;;;;;15.70;14.40;;;17.90;99.90;;;;;;5079681;28;20492;-67
2022/06/05 01:20:11;;;;;;;17.57;13.67;;;17.90;99.90;;;;;;5063039;28;20545;-66
2022/06/05 01:23:09;;;;;;;14.93;13.93;;;17.80;99.90;;;;;;5061909;28;20472;-66
2022/06/05 01:26:04;;;;;;;15.50;14.40;;;17.80;99.90;;;;;;5034215;28;20467;-67
2022/06/05 01:28:50;;;;;;;14.90;13.80;;;17.90;99.90;;;;;;5074558;28;20520;-66
2022/06/05 01:31:22;;;;;;;15.63;14.20;;;17.80;99.90;;;;;;5071990;28;20473;-67
2022/06/05 01:33:56;;;;;;;15.63;14.53;;;17.60;99.90;;;;;;5063932;28;20471;-67
2022/06/05 01:36:29;;;;;;;16.40;14.73;;;17.60;99.90;;;;;;5064017;28;20474;-66
2022/06/05 01:38:59;;;;;;;16.30;15.10;;;17.60;99.90;;;;;;5063324;28;20584;-66
2022/06/05 01:41:35;;;;;;;15.67;14.70;;;17.70;99.90;;;;;;5073168;28;20482;-67
2022/06/05 01:44:09;;;;;;;16.10;14.90;;;17.70;99.90;;;;;;5073668;28;20469;-66
2022/06/05 01:46:38;;;;;;;15.43;14.43;;;17.70;99.90;;;;;;5076967;28;20463;-66
2022/06/05 01:49:12;;;;;;;15.17;14.10;;;17.70;99.90;;;;;;5064236;28;20479;-66
2022/06/05 01:51:48;;;;;;;15.80;14.70;;;17.70;99.90;;;;;;5066358;28;20959;-67
2022/06/05 01:54:20;;;;;;;15.50;14.20;;;17.80;99.90;;;;;;5077012;28;20462;-67
2022/06/05 01:56:52;;;;;;;16.57;15.00;;;17.90;99.90;;;;;;5070481;28;20502;-66
2022/06/05 01:59:23;;;;;;;15.17;13.87;;;18.10;99.90;;;;;;5069664;28;20477;-66
2022/06/05 02:01:56;;;;;;;16.07;14.87;;;18.30;99.90;;;;;;5074022;28;20461;-66
2022/06/05 02:04:30;;;;;;;16.53;15.07;;;18.30;99.90;;;;;;5061124;28;20491;-67
2022/06/05 02:07:02;;;;;;;16.37;15.10;;;18.40;99.90;;;;;;5067346;28;20462;-66
2022/06/05 02:09:34;;;;;;;16.03;14.80;;;18.50;99.90;;;;;;5075335;28;20466;-67
2022/06/05 02:12:03;;;;;;;15.93;14.73;;;18.50;99.90;;;;;;5069375;28;20531;-67
2022/06/05 02:14:31;;;;;;;15.93;14.47;;;18.50;99.90;;;;;;5070875;28;20476;-66
2022/06/05 02:16:59;;;;;;;15.30;14.17;;;18.50;99.90;;;;;;5071143;28;20469;-66
2022/06/05 02:19:27;;;;;;;15.37;14.37;;;18.50;99.90;;;;;;5064159;28;20462;-67
2022/06/05 02:22:02;;;;;;;15.20;14.20;;;18.60;99.90;;;;;;5067355;28;20463;-66
2022/06/05 02:24:29;;;;;;;15.07;13.90;;;18.60;99.90;;;;;;5076787;28;20460;-67
2022/06/05 02:26:59;;;;;;;16.07;14.83;;;18.70;99.90;;;;;;5073533;28;20464;-66
2022/06/05 02:29:29;;;;;;;16.67;14.70;;;18.80;99.90;;;;;;5075384;28;20453;-67
2022/06/05 02:32:07;;;;;;;15.00;14.10;;;18.80;99.90;;;;;;5066162;28;21061;-67
2022/06/05 02:34:42;;;;;;;16.33;14.87;;;18.90;99.90;;;;;;5071997;28;20463;-66
2022/06/05 02:37:20;;;;;;;14.70;13.67;;;18.90;99.90;;;;;;5062351;28;20558;-66
2022/06/05 02:39:55;;;;;;;14.80;13.60;;;19.00;99.90;;;;;;5070198;28;20484;-66
2022/06/05 02:42:30;;;;;;;14.23;13.30;;;19.00;99.90;;;;;;5057679;28;20992;-66
2022/06/05 02:45:09;;;;;;;13.93;13.10;;;19.00;99.90;;;;;;5073500;28;20467;-67
2022/06/05 02:47:44;;;;;;;16.07;14.73;;;19.00;99.90;;;;;;5068673;28;20454;-67
2022/06/05 02:50:18;;;;;;;14.40;13.37;;;19.10;99.90;;;;;;5069385;28;20465;-66
2022/06/05 02:52:46;;;;;;;15.27;14.27;;;19.10;99.90;;;;;;5066348;28;20521;-66
2022/06/05 02:55:15;;;;;;;16.00;14.77;;;19.00;99.90;;;;;;5071799;28;20455;-67
2022/06/05 02:57:43;;;;;;;17.27;15.87;;;18.80;99.90;;;;;;5068970;28;20475;-66
2022/06/05 03:00:16;;;;;;;16.30;15.00;;;18.70;99.90;;;;;;5076327;28;20803;-67
2022/06/05 03:05:28;;;;;;;16.70;15.40;;;18.50;99.90;;;;;;5066928;28;20533;-67
2022/06/05 03:07:55;;;;;;;15.40;14.37;;;18.50;99.90;;;;;;5061104;28;20473;-67
2022/06/05 03:10:23;;;;;;;16.23;15.00;;;18.40;99.90;;;;;;5076594;28;20883;-67
2022/06/05 03:12:49;;;;;;;16.73;15.50;;;18.40;99.90;;;;;;5070127;28;20474;-66
2022/06/05 03:15:18;;;;;;;16.43;15.13;;;18.40;99.90;;;;;;5069418;28;20459;-66
2022/06/05 03:17:45;;;;;;;15.90;14.90;;;18.40;99.90;;;;;;5064866;28;20486;-67
2022/06/05 03:20:15;;;;;;;14.70;13.90;;;18.40;99.90;;;;;;5073690;28;20540;-67
2022/06/05 03:22:42;;;;;;;14.57;13.67;;;18.60;99.90;;;;;;5064125;28;20468;-67
2022/06/05 03:25:12;;;;;;;14.90;13.80;;;18.60;99.90;;;;;;5077886;28;20465;-66
2022/06/05 03:27:39;;;;;;;14.87;13.87;;;18.60;99.90;;;;;;5065963;28;20470;-67
2022/06/05 03:30:07;;;;;;;16.63;15.13;;;18.60;99.90;;;;;;5071603;28;20976;-66
2022/06/05 03:32:35;;;;;;;14.00;13.10;;;18.70;99.90;;;;;;5060914;28;20525;-67
2022/06/05 03:35:04;;;;;;;15.97;14.63;;;18.70;99.90;;;;;;5072172;28;20466;-66
2022/06/05 03:37:31;;;;;;;15.90;14.63;;;18.70;99.90;;;;;;5070761;28;20474;-66
2022/06/05 03:39:58;;;;;;;15.33;14.33;;;18.70;99.90;;;;;;5063244;28;20960;-66
2022/06/05 03:42:26;;;;;;;16.07;15.00;;;18.70;99.90;;;;;;5069186;28;20841;-66
2022/06/05 03:44:53;;;;;;;16.60;15.30;;;18.60;99.90;;;;;;5072636;28;20472;-67
2022/06/05 03:47:20;;;;;;;16.30;15.20;;;18.60;99.90;;;;;;5069863;28;20457;-68
2022/06/05 03:49:48;;;;;;;16.73;15.53;;;18.60;99.90;;;;;;5070686;28;20462;-68
2022/06/05 03:52:16;;;;;;;15.87;14.97;;;18.60;99.90;;;;;;5071215;28;20502;-67
2022/06/05 03:54:43;;;;;;;16.10;15.07;;;18.60;99.90;;;;;;5070554;28;20462;-67
2022/06/05 03:57:09;;;;;;;16.13;14.93;;;18.50;99.90;;;;;;5069345;28;21506;-67
2022/06/05 03:59:37;;;;;;;17.03;15.90;;;18.20;99.90;;;;;;5074581;28;20499;-67
2022/06/05 04:02:05;;;;;;;17.03;15.83;;;18.10;99.90;;;;;;5055382;28;20992;-67
2022/06/05 04:04:33;;;;;;;16.43;15.30;;;18.00;99.90;;;;;;5042641;28;20488;-66
2022/06/05 04:07:01;;;;;;;16.73;15.63;;;18.00;99.90;;;;;;5041480;28;20475;-68
2022/06/05 04:09:28;;;;;;;16.87;15.47;;;18.00;99.90;;;;;;5043101;28;20464;-66
2022/06/05 04:11:55;;;;;;;15.47;14.53;;;18.00;99.90;;;;;;5042727;28;20965;-66
2022/06/05 04:14:22;;;;;;;15.87;14.83;;;17.90;99.90;;;;;;5041094;28;21019;-66
2022/06/05 04:16:49;;;;;;;15.70;14.43;;;17.90;99.90;;;;;;5042144;28;20547;-67
2022/06/05 04:19:17;;;;;;;16.20;15.10;;;18.00;99.90;;;;;;5043348;28;20624;-67
2022/06/05 04:21:47;;;;;;;15.90;14.80;;;18.00;99.90;;;;;;5043046;28;20537;-67
2022/06/05 04:24:16;;;;;;;14.90;13.90;;;18.10;99.90;;;;;;5043566;28;20459;-67
2022/06/05 04:26:44;;;;;;;15.70;14.63;;;18.00;99.90;;;;;;5046597;28;20458;-67
2022/06/05 04:29:12;;;;;;;15.00;14.10;;;18.10;99.90;;;;;;5046817;28;20489;-67
2022/06/05 04:31:44;;;;;;;16.03;14.73;;;18.10;99.90;;;;;;5061294;28;20548;-67
2022/06/05 04:34:15;;;;;;;16.23;15.03;;;18.10;99.90;;;;;;5069008;28;20465;-67
2022/06/05 04:36:42;;;;;;;14.30;13.30;;;18.20;99.90;;;;;;5078000;28;20825;-67
2022/06/05 04:39:10;;;;;;;15.23;14.33;;;18.30;99.90;;;;;;5067445;28;20513;-67
2022/06/05 04:41:38;;;;;;;15.70;14.70;;;18.40;99.90;;;;;;5045868;28;20456;-67
2022/06/05 04:44:06;;;;;;;14.40;13.53;;;18.50;99.90;;;;;;5046109;28;20474;-67
2022/06/05 04:46:34;;;;;;;15.27;14.30;;;18.60;99.90;;;;;;5045769;28;20451;-67
2022/06/05 04:49:02;;;;;;;15.30;14.30;;;18.60;99.90;;;;;;5045798;28;20600;-67
2022/06/05 04:51:28;;;;;;;14.97;14.03;;;18.70;99.90;;;;;;5045503;28;21029;-67
2022/06/05 04:53:57;;;;;;;15.20;14.07;;;18.80;99.90;;;;;;5045350;28;20765;-67
2022/06/05 04:56:26;;;;;;;15.10;14.13;;;18.90;99.90;;;;;;5046233;28;20873;-66
2022/06/05 04:58:55;;;;;;;15.97;14.97;;;19.00;99.90;;;;;;5045549;28;20501;-68
2022/06/05 05:01:24;;;;;;;16.23;14.83;;;19.00;99.90;;;;;;5045698;28;21131;-67
2022/06/05 05:03:54;;;;;;;16.07;14.77;;;19.10;99.90;;;;;;5045459;28;20485;-67
2022/06/05 05:06:21;;;;;;;15.93;14.43;;;19.20;99.90;;;;;;5045624;28;20961;-67
2022/06/05 05:08:47;;;;;;;15.77;14.60;;;19.20;99.90;;;;;;5045934;28;20776;-67
2022/06/05 05:11:15;;;;;;;15.70;14.50;;;19.20;99.90;;;;;;5045660;28;20454;-67
2022/06/05 05:13:42;;;;;;;15.03;13.80;;;19.40;99.90;;;;;;5045290;28;21068;-67
2022/06/05 05:16:10;;;;;;;15.30;14.20;;;19.50;99.90;;;;;;5044650;28;21295;-68
2022/06/05 05:18:37;;;;;;;13.90;13.10;;;19.60;99.90;;;;;;5045373;28;21010;-66
2022/06/05 05:21:06;;;;;;;15.37;14.13;;;19.70;99.90;;;;;;5045870;28;20467;-67
2022/06/05 05:23:33;;;;;;;15.60;14.60;;;19.80;99.90;;;;;;5045158;28;20971;-67
2022/06/05 05:26:08;;;;;;;14.27;13.47;;;19.90;99.90;;;;;;5045306;28;20478;-67
2022/06/05 05:28:35;;;;;;;15.30;14.20;;;20.10;99.90;;;;;;5048190;28;20489;-67
2022/06/05 05:31:06;;;;;;;14.57;13.77;;;20.10;99.90;;;;;;5073528;28;20462;-66
2022/06/05 05:33:35;;;;;;;14.80;13.90;;;20.20;99.90;;;;;;5071652;28;20466;-67
2022/06/05 05:36:01;;;;;;;14.77;13.33;;;20.20;99.90;;;;;;5044372;28;20463;-68
2022/06/05 05:38:28;;;;;;;14.87;13.90;;;20.30;99.90;;;;;;5044894;28;20487;-68
2022/06/05 05:43:40;;;;;;;15.53;14.53;;;20.40;99.90;;;;;;5044691;28;20463;-67
2022/06/05 05:46:09;;;;;;;14.20;13.20;;;20.40;99.90;;;;;;5045426;28;20474;-68
2022/06/05 05:48:37;;;;;;;15.20;13.90;;;20.40;99.90;;;;;;5045606;28;20459;-68
2022/06/05 05:51:04;;;;;;;14.97;13.97;;;20.40;99.90;;;;;;5044519;28;20782;-67
2022/06/05 05:53:31;;;;;;;16.10;15.03;;;20.40;99.90;;;;;;5044749;28;20962;-66
2022/06/05 05:56:05;;;;;;;16.63;15.50;;;20.40;99.90;;;;;;5045749;28;20961;-66
2022/06/05 05:58:32;;;;;;;16.57;15.07;;;20.40;99.90;;;;;;5044742;28;20861;-70
2022/06/05 06:01:01;;;;;;;16.50;15.10;;;20.20;99.90;;;;;;5044196;28;20470;-68
2022/06/05 06:03:29;;;;;;;16.53;15.10;;;20.20;99.90;;;;;;5068987;28;20470;-68
2022/06/05 06:05:59;;;;;;;15.13;14.13;;;20.20;99.90;;;;;;5059026;28;20834;-68
2022/06/05 06:08:26;;;;;;;16.63;15.13;;;20.30;99.90;;;;;;5070284;28;20846;-68
2022/06/05 06:10:53;;;;;;;15.77;14.73;;;20.40;99.90;;;;;;5045097;28;20475;-68
2022/06/05 06:13:20;;;;;;;15.73;14.37;;;20.40;99.90;;;;;;5042976;28;20489;-68
2022/06/05 06:15:49;;;;;;;15.17;14.23;;;20.40;99.90;;;;;;5042297;28;20565;-68
2022/06/05 06:18:16;;;;;;;15.63;14.50;;;20.50;99.90;;;;;;5042905;28;20463;-69
2022/06/05 06:20:43;;;;;;;15.50;14.37;;;20.60;99.90;;;;;;5042402;28;20913;-68
2022/06/05 06:23:11;;;;;;;15.80;14.80;;;20.70;99.90;;;;;;5042399;28;20966;-69
2022/06/05 06:25:38;;;;;;;15.47;14.57;;;20.50;99.90;;;;;;5042965;28;20462;-69
2022/06/05 06:28:07;;;;;;;14.67;13.77;;;20.60;99.90;;;;;;5042368;28;20460;-69
2022/06/05 06:30:35;;;;;;;15.10;14.20;;;20.60;99.90;;;;;;5064026;28;20466;-68
2022/06/05 06:33:02;;;;;;;15.60;14.30;;;20.70;99.90;;;;;;5046186;28;20838;-68
2022/06/05 06:35:29;;;;;;;15.10;14.00;;;20.70;99.90;;;;;;5041910;28;20454;-69
2022/06/05 06:37:56;;;;;;;15.03;14.07;;;20.60;99.90;;;;;;5042460;28;21261;-68
2022/06/05 06:40:24;;;;;;;16.07;15.03;;;20.70;99.90;;;;;;5042174;28;20485;-68
2022/06/05 06:42:51;;;;;;;18.03;15.43;;;20.60;99.90;;;;;;5041452;28;20467;-68
2022/06/05 06:45:18;;;;;;;15.60;14.50;;;20.60;99.90;;;;;;5041551;28;20460;-68
2022/06/05 06:47:45;;;;;;;16.00;14.67;;;20.70;99.90;;;;;;5041856;28;20550;-69
2022/06/05 06:50:12;;;;;;;15.37;14.27;;;20.80;99.90;;;;;;5040752;28;20467;-68
2022/06/05 06:52:39;;;;;;;16.57;15.40;;;20.80;99.90;;;;;;5041284;28;20467;-68
2022/06/05 06:55:07;;;;;;;15.43;14.33;;;20.90;99.90;;;;;;5042844;28;21292;-69
2022/06/05 06:57:35;;;;;;;16.93;15.00;;;21.10;99.90;;;;;;5042476;28;20548;-69
2022/06/05 07:00:02;;;;;;;16.13;14.93;;;21.30;99.90;;;;;;5041932;28;20568;-69
2022/06/05 07:02:29;;;;;;;16.77;15.63;;;21.40;99.90;;;;;;5040598;28;22005;-69
2022/06/05 07:04:56;;;;;;;16.77;15.57;;;21.40;99.90;;;;;;5041740;28;20510;-68
2022/06/05 07:07:23;;;;;;;15.47;14.47;;;21.50;99.90;;;;;;5042035;28;20465;-67
2022/06/05 07:09:50;;;;;;;15.83;14.73;;;21.70;99.90;;;;;;5041581;28;20466;-68
2022/06/05 07:12:17;;;;;;;15.17;14.27;;;22.00;99.90;;;;;;5042066;28;20486;-68
2022/06/05 07:14:45;;;;;;;16.90;15.50;;;22.00;99.90;;;;;;5041808;28;20494;-67
2022/06/05 07:17:12;;;;;;;16.23;15.23;;;22.10;99.90;;;;;;5041211;28;20462;-68
2022/06/05 07:19:39;;;;;;;15.73;14.80;;;22.40;99.90;;;;;;5041146;28;21036;-67
2022/06/05 07:22:06;;;;;;;15.60;14.70;;;22.50;99.90;;;;;;5041744;28;20478;-68
2022/06/05 07:24:34;;;;;;;16.73;15.63;;;22.60;99.90;;;;;;5041102;28;20465;-68
2022/06/05 07:27:01;;;;;;;16.73;15.50;;;22.60;99.90;;;;;;5040232;28;20534;-67
2022/06/05 07:29:28;;;;;;;15.60;14.70;;;22.80;99.90;;;;;;5041384;28;20463;-68
2022/06/05 07:31:56;;;;;;;15.90;15.00;;;23.00;99.90;;;;;;5051611;28;21276;-68
2022/06/05 07:34:23;;;;;;;16.60;15.40;;;23.20;99.90;;;;;;5076607;28;20467;-67
2022/06/05 07:39:31;;;;;;;16.90;15.60;;;23.60;99.90;;;;;;5043045;28;20486;-68
2022/06/05 07:41:58;;;;;;;16.03;14.93;;;24.00;99.90;;;;;;5041288;28;20479;-67
2022/06/05 07:44:25;;;;;;;16.20;15.17;;;24.10;99.90;;;;;;5040289;28;20473;-68
2022/06/05 07:46:53;;;;;;;15.63;14.73;;;24.20;99.90;;;;;;5039782;28;20491;-68
2022/06/05 07:49:21;;;;;;;16.80;15.80;;;24.50;99.90;;;;;;5039064;28;20853;-68
2022/06/05 07:54:34;;;;;;;16.90;15.60;;;24.60;99.90;;;;;;5040880;28;20488;-68
2022/06/05 07:57:03;;;;;;;17.60;15.97;;;24.70;99.90;;;;;;5039496;28;20454;-68
2022/06/05 07:59:33;;;;;;;16.10;14.73;;;24.80;99.90;;;;;;5039924;28;20870;-67
2022/06/05 08:02:03;;;;;;;16.67;15.30;;;24.80;99.90;;;;;;5045104;28;20465;-68
2022/06/05 08:04:32;;;;;;;16.30;15.10;;;24.60;99.90;;;;;;5044531;28;20498;-68
2022/06/05 08:07:00;;;;;;;17.23;15.77;;;24.90;99.90;;;;;;5044903;28;20470;-68
2022/06/05 08:09:28;;;;;;;17.83;16.30;;;25.00;99.90;;;;;;5043138;28;20977;-68
2022/06/05 08:11:55;;;;;;;16.70;15.70;;;25.00;99.90;;;;;;5044514;28;20470;-68
2022/06/05 08:14:22;;;;;;;16.53;15.53;;;25.10;99.90;;;;;;5043527;28;20479;-68
2022/06/05 08:16:49;;;;;;;17.23;15.87;;;25.00;99.90;;;;;;5044136;28;20462;-68
2022/06/05 08:19:19;;;;;;;17.20;16.00;;;25.30;99.90;;;;;;5042698;28;20494;-69
2022/06/05 08:21:48;;;;;;;17.30;16.33;;;25.60;99.90;;;;;;5040818;28;20998;-67
2022/06/05 08:24:16;;;;;;;16.30;15.30;;;25.80;99.90;;;;;;5043734;28;20851;-68
2022/06/05 08:26:43;;;;;;;16.73;15.40;;;25.60;99.90;;;;;;5047073;28;20616;-68
2022/06/05 08:29:10;;;;;;;17.80;16.70;;;25.40;99.90;;;;;;5079023;28;21089;-67
2022/06/05 08:31:38;;;;;;;17.77;16.43;;;24.90;99.90;;;;;;5076099;28;20508;-69
2022/06/05 08:34:07;;;;;;;17.60;16.60;;;24.50;99.90;;;;;;5069892;28;20987;-68
2022/06/05 08:36:35;;;;;;;18.77;17.53;;;24.30;99.90;;;;;;5044025;28;20562;-67
2022/06/05 08:41:59;;;;;;;22.47;21.03;;;23.70;99.90;;;;;;5041077;28;20531;-66
2022/06/05 08:44:36;;;;;;;24.67;22.63;;;23.20;99.90;;;;;;5043723;28;20470;-68
2022/06/05 08:47:10;;;;;;;24.70;22.73;;;22.90;99.90;;;;;;5043770;28;21031;-68
2022/06/05 08:49:45;;;;;;;25.77;24.03;;;22.50;99.90;;;;;;5042236;28;20513;-68
2022/06/05 08:52:20;;;;;;;24.27;22.40;;;22.20;99.90;;;;;;5042360;28;20800;-68
2022/06/05 08:54:56;;;;;;;24.00;22.40;;;22.10;99.90;;;;;;5041643;28;22734;-68
2022/06/05 08:57:29;;;;;;;22.67;21.17;;;22.00;99.90;;;;;;5043909;28;20466;-67
2022/06/05 09:00:02;;;;;;;25.13;23.17;;;21.90;99.90;;;;;;5056280;28;20466;-65
2022/06/05 09:02:41;;;;;;;29.73;27.60;;;21.60;99.90;;;;;;5058052;28;20505;-67
2022/06/05 09:05:17;;;;;;;33.20;30.60;;;21.50;99.90;;;;;;5070403;28;20497;-66
2022/06/05 09:07:47;;;;;;;38.00;34.70;;;21.30;99.90;;;;;;5062440;28;20489;-67
2022/06/05 09:10:21;;;;;;;43.53;40.07;;;20.90;99.90;;;;;;5043936;28;20470;-66
2022/06/05 09:12:54;;;;;;;42.97;39.47;;;20.60;99.90;;;;;;5042570;28;20489;-67
2022/06/05 09:15:28;;;;;;;43.10;39.40;;;20.10;99.90;;;;;;5044022;28;21031;-66
2022/06/05 09:17:57;;;;;;;41.40;37.70;;;19.90;99.90;;;;;;5043233;28;20448;-66
2022/06/05 09:20:40;;;;;;;42.53;38.27;;;19.80;99.90;;;;;;5044382;28;20492;-66
2022/06/05 09:23:18;;;;;;;42.40;37.90;;;19.60;99.90;;;;;;5043875;28;20473;-67
2022/06/05 09:25:54;;;;;;;41.33;37.57;;;19.30;99.90;;;;;;5043661;28;20472;-67
2022/06/05 09:28:56;;;;;;;39.53;36.27;;;19.10;99.90;;;;;;5043768;28;20473;-66
2022/06/05 09:31:41;;;;;;;39.33;36.17;;;18.90;99.90;;;;;;5026361;28;20471;-66
2022/06/05 09:34:19;;;;;;;38.20;35.33;;;18.90;99.90;;;;;;5043082;28;20451;-67
2022/06/05 09:36:56;;;;;;;38.87;35.80;;;18.80;99.90;;;;;;5044543;28;20475;-67
2022/06/05 09:39:28;;;;;;;38.77;35.37;;;18.90;99.90;;;;;;5044869;28;20698;-67
2022/06/05 09:42:16;;;;;;;36.70;33.90;;;18.90;99.90;;;;;;5044179;28;20460;-67
2022/06/05 09:44:51;;;;;;;36.57;33.67;;;18.90;99.90;;;;;;5044022;28;20467;-68
2022/06/05 09:47:26;;;;;;;35.73;33.07;;;19.10;99.90;;;;;;5043033;28;20465;-68
2022/06/05 09:49:59;;;;;;;34.90;32.33;;;19.20;99.90;;;;;;5043394;28;20465;-68
2022/06/05 09:52:29;;;;;;;35.30;32.17;;;19.20;99.90;;;;;;5041246;28;20476;-67
2022/06/05 09:55:02;;;;;;;36.27;33.23;;;19.30;99.90;;;;;;5042851;28;20978;-68
2022/06/05 10:00:31;;;;;;;38.77;35.80;;;19.40;99.90;;;;;;5042313;28;20489;-67
2022/06/05 10:03:02;;;;;;;38.77;35.67;;;19.30;99.90;;;;;;5030823;28;20465;-67
2022/06/05 10:05:32;;;;;;;41.77;38.27;;;19.20;99.90;;;;;;5036915;28;20501;-65
2022/06/05 10:08:07;;;;;;;40.30;36.80;;;19.20;99.90;;;;;;5035721;28;21017;-67
2022/06/05 10:10:39;;;;;;;41.33;37.80;;;19.20;99.90;;;;;;5057677;28;20512;-66
2022/06/05 10:13:16;;;;;;;43.30;39.57;;;19.30;99.90;;;;;;5052832;28;20482;-66
2022/06/05 10:15:48;;;;;;;41.60;38.10;;;19.50;99.90;;;;;;5037945;28;20486;-67
2022/06/05 10:18:21;;;;;;;42.27;38.67;;;19.50;99.90;;;;;;5037135;28;20473;-66
2022/06/05 10:20:56;;;;;;;42.83;39.50;;;19.70;99.90;;;;;;5037355;28;21051;-67
2022/06/05 10:23:49;;;;;;;43.50;39.83;;;19.90;99.90;;;;;;5034823;28;20469;-66
2022/06/05 10:26:23;;;;;;;41.33;37.73;;;19.90;99.90;;;;;;5034624;28;20462;-66
2022/06/05 10:29:08;;;;;;;42.90;39.30;;;19.90;99.90;;;;;;5035999;28;20471;-67
2022/06/05 10:31:36;;;;;;;43.03;39.03;;;19.90;99.90;;;;;;5034488;28;20455;-65
2022/06/05 10:34:11;;;;;;;41.40;38.00;;;19.90;99.90;;;;;;5035585;28;20562;-66
2022/06/05 10:36:52;;;;;;;41.93;38.23;;;20.00;99.90;;;;;;5033518;28;21355;-66
2022/06/05 10:39:24;;;;;;;43.33;40.00;;;20.10;99.90;;;;;;5031233;28;20547;-67
2022/06/05 10:42:17;;;;;;;41.63;38.40;;;20.20;99.90;;;;;;5036446;28;20490;-66
2022/06/05 10:45:00;;;;;;;42.97;39.57;;;20.30;99.90;;;;;;5031903;28;20487;-66
2022/06/05 10:47:35;;;;;;;42.70;39.33;;;20.40;99.90;;;;;;5035651;28;20675;-66
2022/06/05 10:50:08;;;;;;;44.90;40.93;;;20.40;99.90;;;;;;5036532;28;20485;-66
2022/06/05 10:52:40;;;;;;;45.93;41.67;;;20.40;99.90;;;;;;5035882;28;20553;-66
2022/06/05 10:55:25;;;;;;;47.03;42.80;;;20.40;99.90;;;;;;5035168;28;20796;-65
2022/06/05 10:57:58;;;;;;;45.67;41.87;;;20.50;99.90;;;;;;5036446;28;20919;-66
2022/06/05 11:00:33;;;;;;;47.00;43.20;;;20.70;99.90;;;;;;5035587;28;20486;-66
2022/06/05 11:03:13;;;;;;;47.07;42.87;;;20.90;99.90;;;;;;5036179;28;20454;-66
2022/06/05 11:05:52;;;;;;;42.80;39.03;;;21.00;99.90;;;;;;5035881;28;20485;-66
2022/06/05 11:08:29;;;;;;;43.57;39.80;;;21.20;99.90;;;;;;5036342;28;20961;-68
2022/06/05 11:14:07;;;;;;;41.50;38.20;;;21.40;99.90;;;;;;5035480;28;21001;-67
2022/06/05 11:16:42;;;;;;;39.30;36.10;;;21.40;99.90;;;;;;5036065;28;20458;-67
2022/06/05 11:19:19;;;;;;;39.00;35.43;;;21.50;99.90;;;;;;5035950;28;20473;-67
2022/06/05 11:21:50;;;;;;;39.07;35.73;;;21.40;99.90;;;;;;5038362;28;21065;-66
2022/06/05 11:24:23;;;;;;;38.87;35.67;;;21.40;99.90;;;;;;5037732;28;20458;-67
2022/06/05 11:26:57;;;;;;;37.40;34.10;;;21.40;99.90;;;;;;5038232;28;21047;-66
2022/06/05 11:29:31;;;;;;;36.80;33.80;;;21.40;99.90;;;;;;5036298;28;20475;-67
2022/06/05 11:32:18;;;;;;;36.80;33.63;;;21.80;99.90;;;;;;5037959;28;20489;-66
2022/06/05 11:34:52;;;;;;;30.10;27.80;;;22.70;99.90;;;;;;5038762;28;20819;-66
2022/06/05 11:37:35;;;;;;;26.50;24.60;;;23.60;99.90;;;;;;5037683;28;20479;-66
2022/06/05 11:40:12;;;;;;;26.93;24.77;;;24.10;99.90;;;;;;5037438;28;20467;-67
2022/06/05 11:42:45;;;;;;;26.40;24.40;;;24.30;99.90;;;;;;5036936;28;20456;-66
2022/06/05 11:45:33;;;;;;;23.43;21.80;;;24.80;99.90;;;;;;5037344;28;20457;-67
2022/06/05 11:48:09;;;;;;;23.93;22.13;;;25.80;99.90;;;;;;5037689;28;20553;-67
2022/06/05 11:50:40;;;;;;;24.50;22.53;;;25.60;99.90;;;;;;5038559;28;20471;-66
2022/06/05 11:53:15;;;;;;;25.47;23.67;;;25.10;99.90;;;;;;5038054;28;20473;-68
2022/06/05 11:55:50;;;;;;;23.63;22.13;;;25.10;99.90;;;;;;5036970;28;20600;-66
2022/06/05 11:58:23;;;;;;;23.50;21.83;;;25.30;99.90;;;;;;5038009;28;20516;-67
2022/06/05 12:00:56;;;;;;;21.83;20.33;;;25.60;99.90;;;;;;5036677;28;20478;-67
2022/06/05 12:03:33;;;;;;;21.50;20.20;;;26.30;99.90;;;;;;5035836;28;20912;-68
2022/06/05 12:06:05;;;;;;;21.70;20.30;;;26.10;99.90;;;;;;5037417;28;20466;-68
2022/06/05 12:08:36;;;;;;;20.60;19.40;;;26.30;99.90;;;;;;5037522;28;20451;-67
2022/06/05 12:11:07;;;;;;;21.07;19.63;;;26.30;99.90;;;;;;5037796;28;20458;-69
2022/06/05 12:13:55;;;;;;;18.93;17.93;;;26.30;99.90;;;;;;5037354;28;20562;-68
2022/06/05 12:16:32;;;;;;;20.03;18.70;;;26.50;99.90;;;;;;5036203;28;20557;-68
2022/06/05 12:19:09;;;;;;;20.60;19.20;;;26.40;99.90;;;;;;5036604;28;20504;-67
2022/06/05 12:21:52;;;;;;;20.20;19.10;;;26.50;99.90;;;;;;5038188;28;20487;-67
2022/06/05 12:24:24;;;;;;;19.80;18.60;;;26.40;99.90;;;;;;5037265;28;20834;-67
2022/06/05 12:26:55;;;;;;;19.13;17.83;;;26.70;99.90;;;;;;5038510;28;20671;-68
2022/06/05 12:29:31;;;;;;;19.70;18.40;;;26.50;99.90;;;;;;5035207;28;20463;-68
2022/06/05 12:32:02;;;;;;;19.90;18.67;;;26.30;99.90;;;;;;5037127;28;21203;-66
2022/06/05 12:34:44;;;;;;;20.63;19.43;;;25.90;99.90;;;;;;5036761;28;20493;-66
2022/06/05 12:37:19;;;;;;;19.07;17.77;;;25.80;99.90;;;;;;5032044;28;20468;-66
2022/06/05 12:39:49;;;;;;;19.27;17.97;;;25.70;99.90;;;;;;5037119;28;20841;-67
2022/06/05 12:42:27;;;;;;;20.07;18.80;;;26.10;99.90;;;;;;5036598;28;20496;-66
2022/06/05 12:44:56;;;;;;;19.43;18.23;;;25.90;99.90;;;;;;5037714;28;20988;-67
2022/06/05 12:47:47;;;;;;;20.80;19.40;;;25.90;99.90;;;;;;5041635;28;20463;-68
2022/06/05 12:50:37;;;;;;;19.13;18.00;;;25.40;99.90;;;;;;5041381;28;20493;-67
2022/06/05 12:53:11;;;;;;;20.50;19.10;;;25.70;99.90;;;;;;5040490;28;20566;-68
2022/06/05 12:55:45;;;;;;;20.40;18.93;;;25.60;99.90;;;;;;5040031;28;20838;-67
2022/06/05 12:58:19;;;;;;;17.47;16.47;;;25.50;99.90;;;;;;5040028;28;21120;-67
2022/06/05 13:00:52;;;;;;;18.50;17.40;;;25.70;99.90;;;;;;5039326;28;20816;-68
2022/06/05 13:03:25;;;;;;;18.23;16.90;;;25.80;99.90;;;;;;5039372;28;20462;-68
2022/06/05 13:05:59;;;;;;;17.77;16.67;;;25.90;99.90;;;;;;5040945;28;21084;-68
2022/06/05 13:08:31;;;;;;;18.57;17.23;;;25.80;99.90;;;;;;5040942;28;20507;-68
2022/06/05 13:11:08;;;;;;;18.70;17.50;;;25.80;99.90;;;;;;5039415;28;20481;-68